NKS3 KEWR-KDTW
Flight info
| Callsign | NKS3 |
|---|---|
| Flight time | N/A |
| Altitude | 34000 |
| Route | DCT GAYEL J95 CFB DCT TRAAD DCT JACCI FERRL2 |
| Aircraft | A21N/M-SDE2E3FGHIRWXY/LB1 |
Departure
| Time | N/A |
|---|---|
| Airport | Newark Liberty International Airport (KEWR) |
Arrival
| Time | 2026-05-06 09:47 |
|---|---|
| Airport | Detroit Metropolitan Wayne County Airport (KDTW) |
| Time | Latitude | Longitude | Altitude | Speed | Heading |
|---|---|---|---|---|---|
| 2026-05-06 09:22 | 42.47241 | -80.84267 | 32890 ft | 365 kts | 265° |
| 2026-05-06 09:22 | 42.47215 | -80.87680 | 32640 ft | 363 kts | 265° |
| 2026-05-06 09:22 | 42.47186 | -80.91070 | 32384 ft | 363 kts | 264° |
| 2026-05-06 09:23 | 42.47156 | -80.94523 | 32105 ft | 365 kts | 264° |
| 2026-05-06 09:23 | 42.47125 | -80.97920 | 31838 ft | 367 kts | 264° |
| 2026-05-06 09:23 | 42.47091 | -81.01376 | 31576 ft | 369 kts | 264° |
| 2026-05-06 09:23 | 42.47057 | -81.04838 | 31303 ft | 369 kts | 264° |
| 2026-05-06 09:24 | 42.47023 | -81.08301 | 31038 ft | 371 kts | 264° |
| 2026-05-06 09:24 | 42.46988 | -81.11815 | 30592 ft | 373 kts | 264° |
| 2026-05-06 09:24 | 42.46949 | -81.15311 | 30037 ft | 376 kts | 264° |
| 2026-05-06 09:24 | 42.46908 | -81.18865 | 29360 ft | 376 kts | 264° |
| 2026-05-06 09:25 | 42.46868 | -81.22390 | 28648 ft | 377 kts | 264° |
| 2026-05-06 09:25 | 42.46827 | -81.25885 | 27933 ft | 377 kts | 264° |
| 2026-05-06 09:25 | 42.46782 | -81.29452 | 27169 ft | 377 kts | 265° |
| 2026-05-06 09:25 | 42.46740 | -81.32973 | 26413 ft | 378 kts | 265° |
| 2026-05-06 09:26 | 42.46696 | -81.36481 | 25779 ft | 375 kts | 265° |
| 2026-05-06 09:26 | 42.46653 | -81.39994 | 25290 ft | 369 kts | 265° |
| 2026-05-06 09:26 | 42.46610 | -81.43421 | 24793 ft | 364 kts | 266° |
| 2026-05-06 09:26 | 42.46568 | -81.46793 | 24315 ft | 359 kts | 265° |
| 2026-05-06 09:27 | 42.46521 | -81.50137 | 23832 ft | 354 kts | 266° |
| 2026-05-06 09:27 | 42.46476 | -81.53439 | 23363 ft | 350 kts | 265° |
| 2026-05-06 09:27 | 42.46428 | -81.56696 | 22901 ft | 346 kts | 265° |
| 2026-05-06 09:27 | 42.46383 | -81.59920 | 22432 ft | 343 kts | 265° |
| 2026-05-06 09:28 | 42.46334 | -81.63138 | 21963 ft | 341 kts | 266° |
| 2026-05-06 09:28 | 42.46285 | -81.66330 | 21496 ft | 338 kts | 265° |
| 2026-05-06 09:28 | 42.46237 | -81.69472 | 21045 ft | 336 kts | 265° |
| 2026-05-06 09:28 | 42.46186 | -81.72607 | 20567 ft | 334 kts | 266° |
| 2026-05-06 09:29 | 42.46134 | -81.75728 | 20128 ft | 332 kts | 266° |
| 2026-05-06 09:29 | 42.46086 | -81.78833 | 19658 ft | 331 kts | 266° |
| 2026-05-06 09:29 | 42.46035 | -81.81931 | 19197 ft | 329 kts | 266° |
| 2026-05-06 09:29 | 42.45983 | -81.85044 | 18748 ft | 328 kts | 268° |
| 2026-05-06 09:30 | 42.45931 | -81.88102 | 18299 ft | 327 kts | 267° |
| 2026-05-06 09:30 | 42.45882 | -81.91157 | 17849 ft | 325 kts | 267° |
| 2026-05-06 09:30 | 42.45829 | -81.94195 | 17386 ft | 324 kts | 267° |
| 2026-05-06 09:30 | 42.45777 | -81.97218 | 16944 ft | 323 kts | 266° |
| 2026-05-06 09:31 | 42.45724 | -82.00236 | 16499 ft | 321 kts | 267° |
| 2026-05-06 09:31 | 42.45669 | -82.03237 | 16068 ft | 320 kts | 267° |
| 2026-05-06 09:31 | 42.45613 | -82.06245 | 15636 ft | 320 kts | 266° |
| 2026-05-06 09:31 | 42.45556 | -82.09233 | 15201 ft | 319 kts | 266° |
| 2026-05-06 09:32 | 42.45500 | -82.12233 | 14772 ft | 318 kts | 266° |
| 2026-05-06 09:32 | 42.45440 | -82.15225 | 14342 ft | 318 kts | 266° |
| 2026-05-06 09:32 | 42.45382 | -82.18203 | 13902 ft | 317 kts | 266° |
| 2026-05-06 09:32 | 42.45322 | -82.21137 | 13506 ft | 316 kts | 266° |
| 2026-05-06 09:33 | 42.45261 | -82.24129 | 13090 ft | 315 kts | 265° |
| 2026-05-06 09:33 | 42.45198 | -82.27069 | 12666 ft | 314 kts | 266° |
| 2026-05-06 09:33 | 42.45140 | -82.29976 | 12385 ft | 308 kts | 266° |
| 2026-05-06 09:33 | 42.45002 | -82.32838 | 12304 ft | 302 kts | 263° |
| 2026-05-06 09:34 | 42.44727 | -82.35615 | 12038 ft | 301 kts | 259° |
| 2026-05-06 09:34 | 42.44395 | -82.38401 | 11724 ft | 299 kts | 259° |
| 2026-05-06 09:34 | 42.44058 | -82.41187 | 11387 ft | 297 kts | 260° |
| 2026-05-06 09:34 | 42.43729 | -82.43917 | 11069 ft | 294 kts | 260° |
| 2026-05-06 09:35 | 42.43401 | -82.46641 | 10727 ft | 294 kts | 259° |
| 2026-05-06 09:35 | 42.43071 | -82.49351 | 10394 ft | 294 kts | 259° |
| 2026-05-06 09:35 | 42.42746 | -82.52029 | 10260 ft | 283 kts | 259° |
| 2026-05-06 09:35 | 42.42435 | -82.54587 | 10153 ft | 271 kts | 259° |
| 2026-05-06 09:36 | 42.42133 | -82.57052 | 10042 ft | 261 kts | 260° |
| 2026-05-06 09:36 | 42.41839 | -82.59452 | 9767 ft | 258 kts | 260° |
| 2026-05-06 09:36 | 42.41546 | -82.61835 | 9382 ft | 259 kts | 260° |
| 2026-05-06 09:36 | 42.41249 | -82.64246 | 9001 ft | 260 kts | 261° |
| 2026-05-06 09:37 | 42.40950 | -82.66668 | 8626 ft | 261 kts | 260° |
| 2026-05-06 09:37 | 42.40651 | -82.69095 | 8258 ft | 261 kts | 261° |
| 2026-05-06 09:37 | 42.40352 | -82.71507 | 7880 ft | 261 kts | 261° |
| 2026-05-06 09:37 | 42.40058 | -82.73888 | 7554 ft | 260 kts | 261° |
| 2026-05-06 09:38 | 42.39780 | -82.76311 | 7196 ft | 261 kts | 266° |
| 2026-05-06 09:38 | 42.39990 | -82.78725 | 6845 ft | 257 kts | 289° |
| 2026-05-06 09:38 | 42.40765 | -82.80881 | 6857 ft | 257 kts | 298° |
| 2026-05-06 09:38 | 42.41641 | -82.82976 | 6873 ft | 258 kts | 299° |
| 2026-05-06 09:39 | 42.42529 | -82.85094 | 6632 ft | 260 kts | 299° |
| 2026-05-06 09:39 | 42.43411 | -82.87216 | 6280 ft | 260 kts | 299° |
| 2026-05-06 09:39 | 42.44291 | -82.89344 | 6009 ft | 256 kts | 300° |
| 2026-05-06 09:39 | 42.45138 | -82.91394 | 5983 ft | 243 kts | 300° |
| 2026-05-06 09:40 | 42.45937 | -82.93330 | 5979 ft | 229 kts | 299° |
| 2026-05-06 09:40 | 42.46703 | -82.95184 | 5983 ft | 224 kts | 300° |
| 2026-05-06 09:40 | 42.48216 | -82.98843 | 5987 ft | 223 kts | 299° |
| 2026-05-06 09:41 | 42.48957 | -83.00694 | 5987 ft | 224 kts | 294° |
| 2026-05-06 09:41 | 42.49141 | -83.02765 | 5975 ft | 228 kts | 258° |
| 2026-05-06 09:41 | 42.48348 | -83.04642 | 5990 ft | 236 kts | 226° |
| 2026-05-06 09:41 | 42.46886 | -83.05669 | 6000 ft | 244 kts | 199° |
| 2026-05-06 09:42 | 42.45265 | -83.06381 | 5973 ft | 241 kts | 214° |
| 2026-05-06 09:42 | 42.44043 | -83.07846 | 5778 ft | 237 kts | 232° |
| 2026-05-06 09:42 | 42.42949 | -83.09506 | 5445 ft | 238 kts | 232° |
| 2026-05-06 09:42 | 42.41839 | -83.11211 | 5105 ft | 239 kts | 232° |
| 2026-05-06 09:43 | 42.40744 | -83.12909 | 4773 ft | 240 kts | 232° |
| 2026-05-06 09:43 | 42.39644 | -83.14615 | 4452 ft | 241 kts | 232° |
| 2026-05-06 09:43 | 42.38546 | -83.16322 | 4138 ft | 241 kts | 232° |
| 2026-05-06 09:43 | 42.37454 | -83.18018 | 3829 ft | 242 kts | 232° |
| 2026-05-06 09:44 | 42.36350 | -83.19734 | 3520 ft | 243 kts | 232° |
| 2026-05-06 09:44 | 42.35251 | -83.21439 | 3375 ft | 236 kts | 232° |
| 2026-05-06 09:44 | 42.34184 | -83.23092 | 3248 ft | 235 kts | 232° |
| 2026-05-06 09:44 | 42.33076 | -83.24730 | 3090 ft | 236 kts | 226° |
| 2026-05-06 09:45 | 42.31793 | -83.26100 | 2863 ft | 237 kts | 216° |
| 2026-05-06 09:45 | 42.30374 | -83.27257 | 2547 ft | 240 kts | 211° |
| 2026-05-06 09:45 | 42.28943 | -83.28287 | 2309 ft | 225 kts | 210° |
| 2026-05-06 09:45 | 42.27582 | -83.29263 | 1972 ft | 215 kts | 211° |
| 2026-05-06 09:46 | 42.26309 | -83.30200 | 1695 ft | 203 kts | 212° |
| 2026-05-06 09:46 | 42.25101 | -83.31096 | 1395 ft | 193 kts | 211° |
| 2026-05-06 09:46 | 42.23957 | -83.31939 | 1132 ft | 181 kts | 211° |
| 2026-05-06 09:46 | 42.22883 | -83.32728 | 868 ft | 168 kts | 210° |
| 2026-05-06 09:47 | 42.21901 | -83.33436 | 686 ft | 150 kts | 210° |
| 2026-05-06 09:47 | 42.21099 | -83.34090 | 635 ft | 102 kts | 211° |
| 2026-05-06 09:47 | 42.20731 | -83.34324 | 635 ft | 24 kts | 196° |
| 2026-05-06 09:47 | 42.20611 | -83.34460 | 635 ft | 22 kts | 237° |
| 2026-05-06 09:48 | 42.20536 | -83.34637 | 635 ft | 21 kts | 242° |
| 2026-05-06 09:48 | 42.20444 | -83.34780 | 635 ft | 20 kts | 214° |
| 2026-05-06 09:48 | 42.20324 | -83.34871 | 635 ft | 19 kts | 209° |
| 2026-05-06 09:48 | 42.20213 | -83.34965 | 635 ft | 18 kts | 217° |
| 2026-05-06 09:49 | 42.20177 | -83.35116 | 635 ft | 17 kts | 269° |
| 2026-05-06 09:49 | 42.20176 | -83.35273 | 637 ft | 15 kts | 270° |
| 2026-05-06 09:49 | 42.20174 | -83.35411 | 638 ft | 14 kts | 269° |
| 2026-05-06 09:49 | 42.20173 | -83.35548 | 638 ft | 14 kts | 269° |
| 2026-05-06 09:50 | 42.20170 | -83.35683 | 638 ft | 14 kts | 268° |
| 2026-05-06 09:50 | 42.20167 | -83.35819 | 638 ft | 14 kts | 269° |
| 2026-05-06 09:50 | 42.20165 | -83.35957 | 638 ft | 14 kts | 272° |
| 2026-05-06 09:50 | 42.20164 | -83.36080 | 638 ft | 11 kts | 277° |
| 2026-05-06 09:51 | 42.20219 | -83.36111 | 639 ft | 0 kts | 14° |
| 2026-05-06 09:51 | 42.20246 | -83.36108 | 640 ft | 8 kts | 345° |
| 2026-05-06 09:51 | 42.20269 | -83.36134 | 640 ft | 2 kts | 304° |
| 2026-05-06 09:51 | 42.20274 | -83.36144 | 641 ft | 0 kts | 303° |